sensor_id;sensor_type;location;lat;lon;timestamp;P1;durP1;ratioP1;P2;durP2;ratioP2
2029;SDS011;1020;48.854;8.830;2022-07-19T00:02:01;2.90;;;2.60;;
2029;SDS011;1020;48.854;8.830;2022-07-19T00:04:27;4.17;;;2.63;;
2029;SDS011;1020;48.854;8.830;2022-07-19T00:06:54;2.83;;;2.63;;
2029;SDS011;1020;48.854;8.830;2022-07-19T00:09:21;4.10;;;2.80;;
2029;SDS011;1020;48.854;8.830;2022-07-19T00:11:48;5.73;;;3.10;;
2029;SDS011;1020;48.854;8.830;2022-07-19T00:14:15;5.10;;;2.90;;
2029;SDS011;1020;48.854;8.830;2022-07-19T00:16:43;3.87;;;3.00;;
2029;SDS011;1020;48.854;8.830;2022-07-19T00:19:10;2.97;;;2.77;;
2029;SDS011;1020;48.854;8.830;2022-07-19T00:21:37;3.40;;;2.63;;
2029;SDS011;1020;48.854;8.830;2022-07-19T00:24:04;3.10;;;2.80;;
2029;SDS011;1020;48.854;8.830;2022-07-19T00:26:31;2.40;;;2.30;;
2029;SDS011;1020;48.854;8.830;2022-07-19T00:28:58;3.63;;;3.33;;
2029;SDS011;1020;48.854;8.830;2022-07-19T00:31:27;3.77;;;2.67;;
2029;SDS011;1020;48.854;8.830;2022-07-19T00:33:55;5.57;;;2.80;;
2029;SDS011;1020;48.854;8.830;2022-07-19T00:36:22;3.90;;;3.50;;
2029;SDS011;1020;48.854;8.830;2022-07-19T00:38:49;4.60;;;3.10;;
2029;SDS011;1020;48.854;8.830;2022-07-19T00:41:16;3.60;;;2.87;;
2029;SDS011;1020;48.854;8.830;2022-07-19T00:43:43;3.20;;;2.90;;
2029;SDS011;1020;48.854;8.830;2022-07-19T00:46:13;3.57;;;3.27;;
2029;SDS011;1020;48.854;8.830;2022-07-19T00:48:40;3.00;;;2.80;;
2029;SDS011;1020;48.854;8.830;2022-07-19T00:51:08;3.00;;;2.50;;
2029;SDS011;1020;48.854;8.830;2022-07-19T00:53:36;3.40;;;3.03;;
2029;SDS011;1020;48.854;8.830;2022-07-19T00:56:04;3.63;;;3.33;;
2029;SDS011;1020;48.854;8.830;2022-07-19T00:58:33;3.00;;;2.80;;
2029;SDS011;1020;48.854;8.830;2022-07-19T01:01:01;3.40;;;3.10;;
2029;SDS011;1020;48.854;8.830;2022-07-19T01:03:29;3.00;;;2.80;;
2029;SDS011;1020;48.854;8.830;2022-07-19T01:05:56;3.20;;;2.90;;
2029;SDS011;1020;48.854;8.830;2022-07-19T01:08:25;5.53;;;2.87;;
2029;SDS011;1020;48.854;8.830;2022-07-19T01:10:51;2.83;;;2.63;;
2029;SDS011;1020;48.854;8.830;2022-07-19T01:13:18;4.13;;;3.23;;
2029;SDS011;1020;48.854;8.830;2022-07-19T01:15:45;3.00;;;2.80;;
2029;SDS011;1020;48.854;8.830;2022-07-19T01:18:12;3.00;;;2.80;;
2029;SDS011;1020;48.854;8.830;2022-07-19T01:20:39;3.60;;;3.20;;
2029;SDS011;1020;48.854;8.830;2022-07-19T01:23:07;3.37;;;3.07;;
2029;SDS011;1020;48.854;8.830;2022-07-19T01:25:34;3.20;;;2.90;;
2029;SDS011;1020;48.854;8.830;2022-07-19T01:28:02;3.93;;;2.60;;
2029;SDS011;1020;48.854;8.830;2022-07-19T01:30:30;3.40;;;3.10;;
2029;SDS011;1020;48.854;8.830;2022-07-19T01:32:57;2.83;;;2.63;;
2029;SDS011;1020;48.854;8.830;2022-07-19T01:35:24;5.50;;;3.40;;
2029;SDS011;1020;48.854;8.830;2022-07-19T01:37:51;3.73;;;3.13;;
2029;SDS011;1020;48.854;8.830;2022-07-19T01:40:20;3.63;;;3.00;;
2029;SDS011;1020;48.854;8.830;2022-07-19T01:42:47;3.63;;;3.30;;
2029;SDS011;1020;48.854;8.830;2022-07-19T01:45:14;3.77;;;3.47;;
2029;SDS011;1020;48.854;8.830;2022-07-19T01:47:42;5.03;;;3.00;;
2029;SDS011;1020;48.854;8.830;2022-07-19T01:50:13;3.40;;;3.20;;
2029;SDS011;1020;48.854;8.830;2022-07-19T01:52:41;3.20;;;2.93;;
2029;SDS011;1020;48.854;8.830;2022-07-19T01:55:08;3.33;;;3.13;;
2029;SDS011;1020;48.854;8.830;2022-07-19T01:57:36;3.40;;;3.20;;
2029;SDS011;1020;48.854;8.830;2022-07-19T02:00:04;3.40;;;2.93;;
2029;SDS011;1020;48.854;8.830;2022-07-19T02:02:31;2.90;;;2.70;;
2029;SDS011;1020;48.854;8.830;2022-07-19T02:04:58;3.20;;;2.90;;
2029;SDS011;1020;48.854;8.830;2022-07-19T02:07:25;4.37;;;2.77;;
2029;SDS011;1020;48.854;8.830;2022-07-19T02:09:52;3.30;;;2.87;;
2029;SDS011;1020;48.854;8.830;2022-07-19T02:12:18;3.50;;;2.93;;
2029;SDS011;1020;48.854;8.830;2022-07-19T02:14:47;3.23;;;3.03;;
2029;SDS011;1020;48.854;8.830;2022-07-19T02:17:13;3.50;;;3.10;;
2029;SDS011;1020;48.854;8.830;2022-07-19T02:19:40;4.80;;;3.50;;
2029;SDS011;1020;48.854;8.830;2022-07-19T02:22:07;3.03;;;2.70;;
2029;SDS011;1020;48.854;8.830;2022-07-19T02:24:34;4.27;;;3.30;;
2029;SDS011;1020;48.854;8.830;2022-07-19T02:27:00;4.17;;;3.10;;
2029;SDS011;1020;48.854;8.830;2022-07-19T02:29:27;3.03;;;2.80;;
2029;SDS011;1020;48.854;8.830;2022-07-19T02:31:55;3.20;;;2.90;;
2029;SDS011;1020;48.854;8.830;2022-07-19T02:34:22;3.60;;;2.90;;
2029;SDS011;1020;48.854;8.830;2022-07-19T02:36:49;4.60;;;3.00;;
2029;SDS011;1020;48.854;8.830;2022-07-19T02:39:15;4.03;;;3.00;;
2029;SDS011;1020;48.854;8.830;2022-07-19T02:41:42;2.90;;;2.70;;
2029;SDS011;1020;48.854;8.830;2022-07-19T02:44:09;3.17;;;2.97;;
2029;SDS011;1020;48.854;8.830;2022-07-19T02:46:36;5.00;;;3.40;;
2029;SDS011;1020;48.854;8.830;2022-07-19T02:49:05;3.67;;;3.37;;
2029;SDS011;1020;48.854;8.830;2022-07-19T02:51:32;3.90;;;3.57;;
2029;SDS011;1020;48.854;8.830;2022-07-19T02:53:58;4.60;;;3.60;;
2029;SDS011;1020;48.854;8.830;2022-07-19T02:56:25;3.00;;;2.80;;
2029;SDS011;1020;48.854;8.830;2022-07-19T02:58:52;4.50;;;3.33;;
2029;SDS011;1020;48.854;8.830;2022-07-19T03:01:18;4.43;;;3.20;;
2029;SDS011;1020;48.854;8.830;2022-07-19T03:03:45;5.00;;;3.17;;
2029;SDS011;1020;48.854;8.830;2022-07-19T03:06:15;13.33;;;3.57;;
2029;SDS011;1020;48.854;8.830;2022-07-19T03:08:43;3.80;;;3.50;;
2029;SDS011;1020;48.854;8.830;2022-07-19T03:11:10;3.77;;;3.53;;
2029;SDS011;1020;48.854;8.830;2022-07-19T03:13:37;3.70;;;3.17;;
2029;SDS011;1020;48.854;8.830;2022-07-19T03:16:04;3.47;;;3.17;;
2029;SDS011;1020;48.854;8.830;2022-07-19T03:18:31;3.53;;;3.23;;
2029;SDS011;1020;48.854;8.830;2022-07-19T03:20:59;5.03;;;3.03;;
2029;SDS011;1020;48.854;8.830;2022-07-19T03:23:27;3.67;;;3.37;;
2029;SDS011;1020;48.854;8.830;2022-07-19T03:25:57;3.70;;;3.03;;
2029;SDS011;1020;48.854;8.830;2022-07-19T03:28:24;3.40;;;3.10;;
2029;SDS011;1020;48.854;8.830;2022-07-19T03:30:50;3.17;;;2.97;;
2029;SDS011;1020;48.854;8.830;2022-07-19T03:33:17;3.33;;;3.13;;
2029;SDS011;1020;48.854;8.830;2022-07-19T03:35:44;3.77;;;3.30;;
2029;SDS011;1020;48.854;8.830;2022-07-19T03:38:12;3.20;;;3.00;;
2029;SDS011;1020;48.854;8.830;2022-07-19T03:40:41;3.47;;;3.27;;
2029;SDS011;1020;48.854;8.830;2022-07-19T03:43:08;3.80;;;3.50;;
2029;SDS011;1020;48.854;8.830;2022-07-19T03:45:35;4.30;;;2.80;;
2029;SDS011;1020;48.854;8.830;2022-07-19T03:48:02;3.93;;;3.63;;
2029;SDS011;1020;48.854;8.830;2022-07-19T03:50:29;3.70;;;3.50;;
2029;SDS011;1020;48.854;8.830;2022-07-19T03:52:55;4.43;;;4.03;;
2029;SDS011;1020;48.854;8.830;2022-07-19T03:55:22;3.67;;;3.37;;
2029;SDS011;1020;48.854;8.830;2022-07-19T03:57:50;3.40;;;3.03;;
2029;SDS011;1020;48.854;8.830;2022-07-19T04:00:17;4.03;;;3.73;;
2029;SDS011;1020;48.854;8.830;2022-07-19T04:02:44;3.60;;;3.00;;
2029;SDS011;1020;48.854;8.830;2022-07-19T04:05:11;4.57;;;3.63;;
2029;SDS011;1020;48.854;8.830;2022-07-19T04:07:38;4.83;;;3.00;;
2029;SDS011;1020;48.854;8.830;2022-07-19T04:10:05;3.90;;;3.50;;
2029;SDS011;1020;48.854;8.830;2022-07-19T04:12:33;3.80;;;3.50;;
2029;SDS011;1020;48.854;8.830;2022-07-19T04:15:02;5.73;;;3.30;;
2029;SDS011;1020;48.854;8.830;2022-07-19T04:17:29;3.93;;;3.20;;
2029;SDS011;1020;48.854;8.830;2022-07-19T04:19:56;4.90;;;4.00;;
2029;SDS011;1020;48.854;8.830;2022-07-19T04:22:23;5.07;;;4.33;;
2029;SDS011;1020;48.854;8.830;2022-07-19T04:24:49;3.60;;;3.30;;
2029;SDS011;1020;48.854;8.830;2022-07-19T04:27:16;4.93;;;3.93;;
2029;SDS011;1020;48.854;8.830;2022-07-19T04:29:43;4.73;;;3.70;;
2029;SDS011;1020;48.854;8.830;2022-07-19T04:32:11;3.63;;;3.37;;
2029;SDS011;1020;48.854;8.830;2022-07-19T04:34:38;4.37;;;3.20;;
2029;SDS011;1020;48.854;8.830;2022-07-19T04:37:05;4.13;;;3.73;;
2029;SDS011;1020;48.854;8.830;2022-07-19T04:39:32;4.80;;;3.70;;
2029;SDS011;1020;48.854;8.830;2022-07-19T04:41:59;3.80;;;3.50;;
2029;SDS011;1020;48.854;8.830;2022-07-19T04:44:26;4.03;;;3.50;;
2029;SDS011;1020;48.854;8.830;2022-07-19T04:46:52;3.87;;;3.50;;
2029;SDS011;1020;48.854;8.830;2022-07-19T04:49:20;5.50;;;3.37;;
2029;SDS011;1020;48.854;8.830;2022-07-19T04:51:47;3.80;;;3.50;;
2029;SDS011;1020;48.854;8.830;2022-07-19T04:54:14;6.13;;;3.67;;
2029;SDS011;1020;48.854;8.830;2022-07-19T04:56:41;5.53;;;3.50;;
2029;SDS011;1020;48.854;8.830;2022-07-19T04:59:08;4.20;;;3.90;;
2029;SDS011;1020;48.854;8.830;2022-07-19T05:01:34;3.80;;;3.50;;
2029;SDS011;1020;48.854;8.830;2022-07-19T05:04:01;3.77;;;3.47;;
2029;SDS011;1020;48.854;8.830;2022-07-19T05:06:30;4.20;;;3.77;;
2029;SDS011;1020;48.854;8.830;2022-07-19T05:08:56;4.77;;;4.37;;
2029;SDS011;1020;48.854;8.830;2022-07-19T05:11:24;4.40;;;3.47;;
2029;SDS011;1020;48.854;8.830;2022-07-19T05:13:50;3.63;;;3.10;;
2029;SDS011;1020;48.854;8.830;2022-07-19T05:16:17;3.97;;;3.57;;
2029;SDS011;1020;48.854;8.830;2022-07-19T05:18:44;4.20;;;3.73;;
2029;SDS011;1020;48.854;8.830;2022-07-19T05:21:11;4.30;;;3.60;;
2029;SDS011;1020;48.854;8.830;2022-07-19T05:23:40;4.07;;;3.67;;
2029;SDS011;1020;48.854;8.830;2022-07-19T05:26:07;3.70;;;3.50;;
2029;SDS011;1020;48.854;8.830;2022-07-19T05:28:34;3.97;;;3.57;;
2029;SDS011;1020;48.854;8.830;2022-07-19T05:31:02;3.73;;;3.43;;
2029;SDS011;1020;48.854;8.830;2022-07-19T05:33:29;3.60;;;3.30;;
2029;SDS011;1020;48.854;8.830;2022-07-19T05:35:56;3.40;;;3.07;;
2029;SDS011;1020;48.854;8.830;2022-07-19T05:38:23;3.60;;;3.30;;
2029;SDS011;1020;48.854;8.830;2022-07-19T05:40:51;5.17;;;3.90;;
2029;SDS011;1020;48.854;8.830;2022-07-19T05:43:18;5.10;;;4.40;;
2029;SDS011;1020;48.854;8.830;2022-07-19T05:45:45;4.30;;;4.00;;
2029;SDS011;1020;48.854;8.830;2022-07-19T05:48:11;4.70;;;4.20;;
2029;SDS011;1020;48.854;8.830;2022-07-19T05:50:38;3.90;;;3.50;;
2029;SDS011;1020;48.854;8.830;2022-07-19T05:53:05;3.97;;;3.67;;
2029;SDS011;1020;48.854;8.830;2022-07-19T05:55:32;4.13;;;3.83;;
2029;SDS011;1020;48.854;8.830;2022-07-19T05:58:00;4.10;;;3.50;;
2029;SDS011;1020;48.854;8.830;2022-07-19T06:00:26;3.33;;;3.13;;
2029;SDS011;1020;48.854;8.830;2022-07-19T06:02:53;3.70;;;3.17;;
2029;SDS011;1020;48.854;8.830;2022-07-19T06:05:20;6.00;;;3.70;;
2029;SDS011;1020;48.854;8.830;2022-07-19T06:07:47;3.50;;;3.20;;
2029;SDS011;1020;48.854;8.830;2022-07-19T06:10:13;3.00;;;2.80;;
2029;SDS011;1020;48.854;8.830;2022-07-19T06:12:40;4.43;;;2.83;;
2029;SDS011;1020;48.854;8.830;2022-07-19T06:15:09;4.10;;;3.00;;
2029;SDS011;1020;48.854;8.830;2022-07-19T06:17:36;5.23;;;3.33;;
2029;SDS011;1020;48.854;8.830;2022-07-19T06:20:03;3.23;;;3.00;;
2029;SDS011;1020;48.854;8.830;2022-07-19T06:22:31;6.80;;;3.07;;
2029;SDS011;1020;48.854;8.830;2022-07-19T06:24:58;5.43;;;3.70;;
2029;SDS011;1020;48.854;8.830;2022-07-19T06:27:25;3.20;;;3.00;;
2029;SDS011;1020;48.854;8.830;2022-07-19T06:29:52;3.73;;;3.37;;
2029;SDS011;1020;48.854;8.830;2022-07-19T06:32:20;5.00;;;3.10;;
2029;SDS011;1020;48.854;8.830;2022-07-19T06:34:47;2.80;;;2.60;;
2029;SDS011;1020;48.854;8.830;2022-07-19T06:37:14;2.90;;;2.70;;
2029;SDS011;1020;48.854;8.830;2022-07-19T06:39:40;4.87;;;2.77;;
2029;SDS011;1020;48.854;8.830;2022-07-19T06:42:07;3.07;;;2.63;;
2029;SDS011;1020;48.854;8.830;2022-07-19T06:44:34;2.97;;;2.77;;
2029;SDS011;1020;48.854;8.830;2022-07-19T06:47:01;2.80;;;2.50;;
2029;SDS011;1020;48.854;8.830;2022-07-19T06:49:29;2.60;;;2.27;;
2029;SDS011;1020;48.854;8.830;2022-07-19T06:51:56;2.40;;;2.20;;
2029;SDS011;1020;48.854;8.830;2022-07-19T06:54:23;2.80;;;2.10;;
2029;SDS011;1020;48.854;8.830;2022-07-19T06:56:49;2.50;;;2.30;;
2029;SDS011;1020;48.854;8.830;2022-07-19T06:59:16;5.43;;;2.60;;
2029;SDS011;1020;48.854;8.830;2022-07-19T07:01:43;2.77;;;2.13;;
2029;SDS011;1020;48.854;8.830;2022-07-19T07:04:10;3.50;;;2.27;;
2029;SDS011;1020;48.854;8.830;2022-07-19T07:06:38;3.90;;;2.87;;
2029;SDS011;1020;48.854;8.830;2022-07-19T07:09:05;4.50;;;2.50;;
2029;SDS011;1020;48.854;8.830;2022-07-19T07:11:31;3.10;;;2.40;;
2029;SDS011;1020;48.854;8.830;2022-07-19T07:13:58;2.80;;;2.20;;
2029;SDS011;1020;48.854;8.830;2022-07-19T07:16:25;3.37;;;2.47;;
2029;SDS011;1020;48.854;8.830;2022-07-19T07:18:52;2.20;;;2.10;;
2029;SDS011;1020;48.854;8.830;2022-07-19T07:21:18;3.93;;;2.70;;
2029;SDS011;1020;48.854;8.830;2022-07-19T07:23:47;2.40;;;2.30;;
2029;SDS011;1020;48.854;8.830;2022-07-19T07:26:13;3.17;;;2.33;;
2029;SDS011;1020;48.854;8.830;2022-07-19T07:28:41;3.60;;;2.47;;
2029;SDS011;1020;48.854;8.830;2022-07-19T07:31:07;2.83;;;2.63;;
2029;SDS011;1020;48.854;8.830;2022-07-19T07:33:34;2.90;;;2.37;;
2029;SDS011;1020;48.854;8.830;2022-07-19T07:36:01;4.00;;;2.40;;
2029;SDS011;1020;48.854;8.830;2022-07-19T07:38:28;2.30;;;2.10;;
2029;SDS011;1020;48.854;8.830;2022-07-19T07:40:56;4.70;;;2.27;;
2029;SDS011;1020;48.854;8.830;2022-07-19T07:43:22;4.10;;;2.27;;
2029;SDS011;1020;48.854;8.830;2022-07-19T07:45:49;4.40;;;2.30;;
2029;SDS011;1020;48.854;8.830;2022-07-19T07:48:16;2.33;;;2.03;;
2029;SDS011;1020;48.854;8.830;2022-07-19T07:50:43;6.10;;;2.33;;
2029;SDS011;1020;48.854;8.830;2022-07-19T07:53:10;2.40;;;1.80;;
2029;SDS011;1020;48.854;8.830;2022-07-19T07:55:36;2.80;;;1.87;;
2029;SDS011;1020;48.854;8.830;2022-07-19T07:58:06;6.07;;;2.23;;
2029;SDS011;1020;48.854;8.830;2022-07-19T08:00:34;3.20;;;2.90;;
2029;SDS011;1020;48.854;8.830;2022-07-19T08:03:01;3.40;;;1.80;;
2029;SDS011;1020;48.854;8.830;2022-07-19T08:05:27;3.33;;;2.50;;
2029;SDS011;1020;48.854;8.830;2022-07-19T08:07:54;5.10;;;2.40;;
2029;SDS011;1020;48.854;8.830;2022-07-19T08:10:21;3.10;;;2.40;;
2029;SDS011;1020;48.854;8.830;2022-07-19T08:12:49;2.60;;;2.40;;
2029;SDS011;1020;48.854;8.830;2022-07-19T08:15:18;2.40;;;2.20;;
2029;SDS011;1020;48.854;8.830;2022-07-19T08:17:45;2.90;;;2.03;;
2029;SDS011;1020;48.854;8.830;2022-07-19T08:20:12;2.30;;;1.80;;
2029;SDS011;1020;48.854;8.830;2022-07-19T08:22:40;2.77;;;2.50;;
2029;SDS011;1020;48.854;8.830;2022-07-19T08:25:07;2.30;;;2.10;;
2029;SDS011;1020;48.854;8.830;2022-07-19T08:27:34;4.40;;;1.87;;
2029;SDS011;1020;48.854;8.830;2022-07-19T08:30:02;3.33;;;1.90;;
2029;SDS011;1020;48.854;8.830;2022-07-19T08:32:31;2.27;;;2.07;;
2029;SDS011;1020;48.854;8.830;2022-07-19T08:34:58;6.53;;;2.17;;
2029;SDS011;1020;48.854;8.830;2022-07-19T08:37:24;2.57;;;2.20;;
2029;SDS011;1020;48.854;8.830;2022-07-19T08:39:51;1.63;;;1.53;;
2029;SDS011;1020;48.854;8.830;2022-07-19T08:42:18;3.30;;;2.10;;
2029;SDS011;1020;48.854;8.830;2022-07-19T08:44:46;1.70;;;1.60;;
2029;SDS011;1020;48.854;8.830;2022-07-19T08:47:17;3.60;;;2.20;;
2029;SDS011;1020;48.854;8.830;2022-07-19T08:49:46;2.20;;;2.00;;
2029;SDS011;1020;48.854;8.830;2022-07-19T08:52:13;2.20;;;1.70;;
2029;SDS011;1020;48.854;8.830;2022-07-19T08:54:40;2.13;;;2.00;;
2029;SDS011;1020;48.854;8.830;2022-07-19T08:57:07;5.83;;;1.60;;
2029;SDS011;1020;48.854;8.830;2022-07-19T08:59:48;1.67;;;1.57;;
2029;SDS011;1020;48.854;8.830;2022-07-19T09:02:15;1.67;;;1.57;;
2029;SDS011;1020;48.854;8.830;2022-07-19T09:04:42;1.60;;;1.50;;
2029;SDS011;1020;48.854;8.830;2022-07-19T09:07:10;1.97;;;1.70;;
2029;SDS011;1020;48.854;8.830;2022-07-19T09:09:44;1.73;;;1.63;;
2029;SDS011;1020;48.854;8.830;2022-07-19T09:12:11;1.63;;;1.53;;
2029;SDS011;1020;48.854;8.830;2022-07-19T09:14:40;2.30;;;2.10;;
2029;SDS011;1020;48.854;8.830;2022-07-19T09:17:07;1.73;;;1.63;;
2029;SDS011;1020;48.854;8.830;2022-07-19T09:19:38;4.27;;;1.77;;
2029;SDS011;1020;48.854;8.830;2022-07-19T09:22:06;6.47;;;2.00;;
2029;SDS011;1020;48.854;8.830;2022-07-19T09:24:36;1.63;;;1.53;;
2029;SDS011;1020;48.854;8.830;2022-07-19T09:27:05;1.90;;;1.80;;
2029;SDS011;1020;48.854;8.830;2022-07-19T09:29:34;4.90;;;2.50;;
2029;SDS011;1020;48.854;8.830;2022-07-19T09:32:06;2.57;;;2.37;;
2029;SDS011;1020;48.854;8.830;2022-07-19T09:34:36;2.23;;;2.03;;
2029;SDS011;1020;48.854;8.830;2022-07-19T09:37:08;7.33;;;1.90;;
2029;SDS011;1020;48.854;8.830;2022-07-19T09:39:38;3.57;;;2.27;;
2029;SDS011;1020;48.854;8.830;2022-07-19T09:42:06;3.97;;;2.00;;
2029;SDS011;1020;48.854;8.830;2022-07-19T09:44:33;3.80;;;2.23;;
2029;SDS011;1020;48.854;8.830;2022-07-19T09:47:00;1.93;;;1.53;;
2029;SDS011;1020;48.854;8.830;2022-07-19T09:49:27;3.00;;;1.90;;
2029;SDS011;1020;48.854;8.830;2022-07-19T09:51:54;4.03;;;2.07;;
2029;SDS011;1020;48.854;8.830;2022-07-19T09:54:22;2.13;;;1.90;;
2029;SDS011;1020;48.854;8.830;2022-07-19T09:56:51;2.23;;;1.97;;
2029;SDS011;1020;48.854;8.830;2022-07-19T09:59:20;2.37;;;2.17;;
2029;SDS011;1020;48.854;8.830;2022-07-19T10:01:48;2.30;;;2.10;;
2029;SDS011;1020;48.854;8.830;2022-07-19T10:04:18;3.70;;;2.07;;
2029;SDS011;1020;48.854;8.830;2022-07-19T10:06:47;6.40;;;2.17;;
2029;SDS011;1020;48.854;8.830;2022-07-19T10:09:17;5.40;;;2.37;;
2029;SDS011;1020;48.854;8.830;2022-07-19T10:11:44;2.87;;;1.90;;
2029;SDS011;1020;48.854;8.830;2022-07-19T10:14:13;2.10;;;2.00;;
2029;SDS011;1020;48.854;8.830;2022-07-19T10:16:51;2.20;;;2.10;;
2029;SDS011;1020;48.854;8.830;2022-07-19T10:19:43;2.30;;;2.10;;
2029;SDS011;1020;48.854;8.830;2022-07-19T10:22:11;1.83;;;1.73;;
2029;SDS011;1020;48.854;8.830;2022-07-19T10:24:40;2.17;;;1.97;;
2029;SDS011;1020;48.854;8.830;2022-07-19T10:27:12;3.37;;;2.17;;
2029;SDS011;1020;48.854;8.830;2022-07-19T10:29:41;1.87;;;1.77;;
2029;SDS011;1020;48.854;8.830;2022-07-19T10:32:09;2.10;;;1.80;;
2029;SDS011;1020;48.854;8.830;2022-07-19T10:34:37;2.73;;;2.33;;
2029;SDS011;1020;48.854;8.830;2022-07-19T10:37:04;2.27;;;2.07;;
2029;SDS011;1020;48.854;8.830;2022-07-19T10:39:32;3.03;;;2.20;;
2029;SDS011;1020;48.854;8.830;2022-07-19T10:42:07;2.13;;;1.90;;
2029;SDS011;1020;48.854;8.830;2022-07-19T10:45:12;2.50;;;1.90;;
2029;SDS011;1020;48.854;8.830;2022-07-19T10:50:44;2.33;;;2.13;;
2029;SDS011;1020;48.854;8.830;2022-07-19T10:56:16;2.13;;;2.03;;
2029;SDS011;1020;48.854;8.830;2022-07-19T10:58:46;2.93;;;2.20;;
2029;SDS011;1020;48.854;8.830;2022-07-19T11:01:15;2.37;;;1.80;;
2029;SDS011;1020;48.854;8.830;2022-07-19T11:03:44;2.70;;;1.90;;
2029;SDS011;1020;48.854;8.830;2022-07-19T11:06:18;2.00;;;1.83;;
2029;SDS011;1020;48.854;8.830;2022-07-19T11:08:46;2.07;;;1.87;;
2029;SDS011;1020;48.854;8.830;2022-07-19T11:11:15;2.23;;;2.03;;
2029;SDS011;1020;48.854;8.830;2022-07-19T11:13:44;2.33;;;1.87;;
2029;SDS011;1020;48.854;8.830;2022-07-19T11:16:12;3.30;;;1.90;;
2029;SDS011;1020;48.854;8.830;2022-07-19T11:18:40;3.23;;;1.73;;
2029;SDS011;1020;48.854;8.830;2022-07-19T11:21:09;2.00;;;1.90;;
2029;SDS011;1020;48.854;8.830;2022-07-19T11:23:37;2.10;;;2.00;;
2029;SDS011;1020;48.854;8.830;2022-07-19T11:26:06;2.23;;;2.03;;
2029;SDS011;1020;48.854;8.830;2022-07-19T11:28:35;2.67;;;2.47;;
2029;SDS011;1020;48.854;8.830;2022-07-19T11:31:13;2.20;;;2.00;;
2029;SDS011;1020;48.854;8.830;2022-07-19T11:33:42;3.80;;;2.10;;
2029;SDS011;1020;48.854;8.830;2022-07-19T11:36:11;3.57;;;2.00;;
2029;SDS011;1020;48.854;8.830;2022-07-19T11:38:41;2.60;;;2.40;;
2029;SDS011;1020;48.854;8.830;2022-07-19T11:41:13;2.20;;;2.00;;
2029;SDS011;1020;48.854;8.830;2022-07-19T11:43:41;4.00;;;2.77;;
2029;SDS011;1020;48.854;8.830;2022-07-19T11:46:08;2.53;;;2.33;;
2029;SDS011;1020;48.854;8.830;2022-07-19T11:48:35;1.90;;;1.80;;
2029;SDS011;1020;48.854;8.830;2022-07-19T11:51:05;3.00;;;2.40;;
2029;SDS011;1020;48.854;8.830;2022-07-19T11:53:34;2.37;;;2.27;;
2029;SDS011;1020;48.854;8.830;2022-07-19T11:56:03;3.47;;;2.57;;
2029;SDS011;1020;48.854;8.830;2022-07-19T11:58:31;4.13;;;2.13;;
2029;SDS011;1020;48.854;8.830;2022-07-19T12:01:00;2.20;;;2.10;;
2029;SDS011;1020;48.854;8.830;2022-07-19T12:03:30;4.47;;;2.93;;
2029;SDS011;1020;48.854;8.830;2022-07-19T12:05:58;2.77;;;2.57;;
2029;SDS011;1020;48.854;8.830;2022-07-19T12:08:38;4.40;;;2.20;;
2029;SDS011;1020;48.854;8.830;2022-07-19T12:11:18;2.30;;;2.20;;
2029;SDS011;1020;48.854;8.830;2022-07-19T12:13:46;3.63;;;2.50;;
2029;SDS011;1020;48.854;8.830;2022-07-19T12:16:14;3.40;;;2.70;;
2029;SDS011;1020;48.854;8.830;2022-07-19T12:18:42;2.53;;;2.20;;
2029;SDS011;1020;48.854;8.830;2022-07-19T12:21:15;2.30;;;2.20;;
2029;SDS011;1020;48.854;8.830;2022-07-19T12:23:44;2.83;;;2.47;;
2029;SDS011;1020;48.854;8.830;2022-07-19T12:26:41;2.43;;;2.00;;
2029;SDS011;1020;48.854;8.830;2022-07-19T12:29:19;5.43;;;3.27;;
2029;SDS011;1020;48.854;8.830;2022-07-19T12:31:47;3.43;;;3.13;;
2029;SDS011;1020;48.854;8.830;2022-07-19T12:34:15;2.87;;;2.30;;
2029;SDS011;1020;48.854;8.830;2022-07-19T12:36:42;2.43;;;2.23;;
2029;SDS011;1020;48.854;8.830;2022-07-19T12:39:18;3.43;;;2.53;;
2029;SDS011;1020;48.854;8.830;2022-07-19T12:41:53;2.83;;;2.50;;
2029;SDS011;1020;48.854;8.830;2022-07-19T12:44:28;6.77;;;2.57;;
2029;SDS011;1020;48.854;8.830;2022-07-19T12:46:56;3.17;;;2.80;;
2029;SDS011;1020;48.854;8.830;2022-07-19T12:49:23;6.33;;;2.80;;
2029;SDS011;1020;48.854;8.830;2022-07-19T12:51:50;6.80;;;2.73;;
2029;SDS011;1020;48.854;8.830;2022-07-19T12:54:18;3.60;;;2.97;;
2029;SDS011;1020;48.854;8.830;2022-07-19T12:56:45;3.27;;;2.97;;
2029;SDS011;1020;48.854;8.830;2022-07-19T12:59:12;2.30;;;2.10;;
2029;SDS011;1020;48.854;8.830;2022-07-19T13:01:56;4.73;;;2.83;;
2029;SDS011;1020;48.854;8.830;2022-07-19T13:04:23;3.67;;;2.90;;
2029;SDS011;1020;48.854;8.830;2022-07-19T13:06:49;4.53;;;2.70;;
2029;SDS011;1020;48.854;8.830;2022-07-19T13:09:16;4.90;;;2.90;;
2029;SDS011;1020;48.854;8.830;2022-07-19T13:11:44;3.30;;;2.60;;
2029;SDS011;1020;48.854;8.830;2022-07-19T13:14:11;3.47;;;2.40;;
2029;SDS011;1020;48.854;8.830;2022-07-19T13:16:39;3.47;;;3.03;;
2029;SDS011;1020;48.854;8.830;2022-07-19T13:19:05;3.10;;;2.70;;
2029;SDS011;1020;48.854;8.830;2022-07-19T13:21:32;3.67;;;2.90;;
2029;SDS011;1020;48.854;8.830;2022-07-19T13:23:59;3.63;;;2.97;;
2029;SDS011;1020;48.854;8.830;2022-07-19T13:26:27;5.33;;;2.73;;
2029;SDS011;1020;48.854;8.830;2022-07-19T13:28:54;3.50;;;2.80;;
2029;SDS011;1020;48.854;8.830;2022-07-19T13:31:21;5.33;;;3.20;;
2029;SDS011;1020;48.854;8.830;2022-07-19T13:33:48;5.37;;;2.60;;
2029;SDS011;1020;48.854;8.830;2022-07-19T13:36:14;3.80;;;3.40;;
2029;SDS011;1020;48.854;8.830;2022-07-19T13:38:41;4.00;;;3.33;;
2029;SDS011;1020;48.854;8.830;2022-07-19T13:41:08;3.47;;;3.17;;
2029;SDS011;1020;48.854;8.830;2022-07-19T13:43:37;4.80;;;3.57;;
2029;SDS011;1020;48.854;8.830;2022-07-19T13:46:04;5.47;;;3.00;;
2029;SDS011;1020;48.854;8.830;2022-07-19T13:48:30;3.20;;;2.90;;
2029;SDS011;1020;48.854;8.830;2022-07-19T13:50:57;6.80;;;3.53;;
2029;SDS011;1020;48.854;8.830;2022-07-19T13:53:24;4.40;;;3.37;;
2029;SDS011;1020;48.854;8.830;2022-07-19T13:55:51;6.73;;;2.80;;
2029;SDS011;1020;48.854;8.830;2022-07-19T13:58:18;4.17;;;2.47;;
2029;SDS011;1020;48.854;8.830;2022-07-19T14:00:46;3.53;;;3.28;;
2029;SDS011;1020;48.854;8.830;2022-07-19T14:03:14;5.40;;;3.00;;
2029;SDS011;1020;48.854;8.830;2022-07-19T14:05:42;5.03;;;2.93;;
2029;SDS011;1020;48.854;8.830;2022-07-19T14:08:09;4.43;;;3.40;;
2029;SDS011;1020;48.854;8.830;2022-07-19T14:10:36;6.70;;;3.20;;
2029;SDS011;1020;48.854;8.830;2022-07-19T14:13:03;4.47;;;2.83;;
2029;SDS011;1020;48.854;8.830;2022-07-19T14:15:31;3.30;;;2.90;;
2029;SDS011;1020;48.854;8.830;2022-07-19T14:17:59;3.47;;;3.17;;
2029;SDS011;1020;48.854;8.830;2022-07-19T14:20:26;5.97;;;2.93;;
2029;SDS011;1020;48.854;8.830;2022-07-19T14:22:53;3.67;;;3.37;;
2029;SDS011;1020;48.854;8.830;2022-07-19T14:25:20;3.87;;;2.90;;
2029;SDS011;1020;48.854;8.830;2022-07-19T14:27:48;2.80;;;2.63;;
2029;SDS011;1020;48.854;8.830;2022-07-19T14:30:15;4.33;;;2.40;;
2029;SDS011;1020;48.854;8.830;2022-07-19T14:32:42;3.80;;;3.40;;
2029;SDS011;1020;48.854;8.830;2022-07-19T14:35:10;3.13;;;2.90;;
2029;SDS011;1020;48.854;8.830;2022-07-19T14:37:37;3.83;;;3.00;;
2029;SDS011;1020;48.854;8.830;2022-07-19T14:40:04;4.33;;;2.83;;
2029;SDS011;1020;48.854;8.830;2022-07-19T14:42:31;2.70;;;2.50;;
2029;SDS011;1020;48.854;8.830;2022-07-19T14:44:58;2.57;;;2.37;;
2029;SDS011;1020;48.854;8.830;2022-07-19T14:47:25;6.20;;;2.90;;
2029;SDS011;1020;48.854;8.830;2022-07-19T14:49:52;2.70;;;2.50;;
2029;SDS011;1020;48.854;8.830;2022-07-19T14:52:20;5.73;;;3.00;;
2029;SDS011;1020;48.854;8.830;2022-07-19T14:54:47;2.73;;;2.53;;
2029;SDS011;1020;48.854;8.830;2022-07-19T14:57:14;2.63;;;2.43;;
2029;SDS011;1020;48.854;8.830;2022-07-19T14:59:41;2.70;;;2.50;;
2029;SDS011;1020;48.854;8.830;2022-07-19T15:02:08;3.93;;;2.60;;
2029;SDS011;1020;48.854;8.830;2022-07-19T15:04:35;2.87;;;2.57;;
2029;SDS011;1020;48.854;8.830;2022-07-19T15:07:02;2.97;;;2.77;;
2029;SDS011;1020;48.854;8.830;2022-07-19T15:09:30;3.27;;;2.33;;
2029;SDS011;1020;48.854;8.830;2022-07-19T15:11:57;5.97;;;4.43;;
2029;SDS011;1020;48.854;8.830;2022-07-19T15:14:25;4.23;;;2.63;;
2029;SDS011;1020;48.854;8.830;2022-07-19T15:16:54;5.10;;;2.60;;
2029;SDS011;1020;48.854;8.830;2022-07-19T15:19:21;3.93;;;2.80;;
2029;SDS011;1020;48.854;8.830;2022-07-19T15:21:48;3.30;;;3.10;;
2029;SDS011;1020;48.854;8.830;2022-07-19T15:24:15;2.87;;;2.67;;
2029;SDS011;1020;48.854;8.830;2022-07-19T15:26:43;3.33;;;3.07;;